createdAt,value
2023-10-11T00:02:16.008Z,11.13
2023-10-11T00:04:50.085Z,10.80
2023-10-11T00:07:21.544Z,11.88
2023-10-11T00:09:53.517Z,10.05
2023-10-11T00:12:23.301Z,12.10
2023-10-11T00:14:53.021Z,9.15
2023-10-11T00:17:22.158Z,7.07
2023-10-11T00:19:54.633Z,10.18
2023-10-11T00:22:25.325Z,9.68
2023-10-11T00:24:54.939Z,13.70
2023-10-11T00:27:24.139Z,10.85
2023-10-11T00:29:54.678Z,10.45
2023-10-11T00:32:23.846Z,8.23
2023-10-11T00:34:54.368Z,10.10
2023-10-11T00:37:23.487Z,11.98
2023-10-11T00:39:55.229Z,9.40
2023-10-11T00:42:24.830Z,10.48
2023-10-11T00:44:53.967Z,10.30
2023-10-11T00:47:23.518Z,9.70
2023-10-11T00:49:54.237Z,12.35
2023-10-11T00:52:23.333Z,9.07
2023-10-11T00:54:52.887Z,15.63
2023-10-11T00:57:22.749Z,7.13
2023-10-11T01:04:20.339Z,8.60
2023-10-11T01:06:50.998Z,13.68
2023-10-11T01:09:27.405Z,12.18
2023-10-11T01:11:56.832Z,10.30
2023-10-11T01:14:25.993Z,11.75
2023-10-11T01:16:58.551Z,12.30
2023-10-11T01:19:28.924Z,9.40
2023-10-11T01:22:00.421Z,8.38
2023-10-11T01:24:30.353Z,8.20
2023-10-11T01:26:59.532Z,9.68
2023-10-11T01:29:29.474Z,10.15
2023-10-11T01:31:58.546Z,11.15
2023-10-11T01:34:32.021Z,7.05
2023-10-11T01:37:02.750Z,8.85
2023-10-11T01:39:34.075Z,10.70
2023-10-11T01:42:03.861Z,8.27
2023-10-11T01:44:35.099Z,10.88
2023-10-11T01:47:04.916Z,14.60
2023-10-11T01:49:40.346Z,10.15
2023-10-11T01:52:13.460Z,11.25
2023-10-11T01:54:42.660Z,7.27
2023-10-11T01:57:12.511Z,8.13
2023-10-11T01:59:42.520Z,10.30
2023-10-11T02:02:12.105Z,8.65
2023-10-11T02:04:42.407Z,7.17
2023-10-11T02:07:13.668Z,10.37
2023-10-11T02:09:44.430Z,10.13
2023-10-11T02:12:13.761Z,9.73
2023-10-11T02:14:43.946Z,8.32
2023-10-11T02:17:14.277Z,8.00
2023-10-11T02:19:43.352Z,10.93
2023-10-11T02:22:13.841Z,14.90
2023-10-11T02:24:43.061Z,12.40
2023-10-11T02:27:19.271Z,13.05
2023-10-11T02:29:49.813Z,13.50
2023-10-11T02:32:19.026Z,14.03
2023-10-11T02:34:50.719Z,8.83
2023-10-11T02:37:24.484Z,9.90
2023-10-11T02:39:53.842Z,7.90
2023-10-11T02:42:23.117Z,9.38
2023-10-11T02:44:52.263Z,10.57
2023-10-11T02:47:23.823Z,9.15
2023-10-11T02:49:55.015Z,12.27
2023-10-11T02:52:31.194Z,13.60
2023-10-11T02:55:01.452Z,7.47
2023-10-11T02:57:31.235Z,8.07
2023-10-11T03:00:01.010Z,15.32
2023-10-11T03:02:31.413Z,13.07
2023-10-11T03:05:02.893Z,11.00
2023-10-11T03:07:35.398Z,11.60
2023-10-11T03:10:14.938Z,16.45
2023-10-11T03:12:44.164Z,7.70
2023-10-11T03:15:13.962Z,11.93
2023-10-11T03:17:45.210Z,7.25
2023-10-11T03:20:29.885Z,11.97
2023-10-11T03:23:01.564Z,13.55
2023-10-11T03:25:32.254Z,13.90
2023-10-11T03:28:01.608Z,9.40
2023-10-11T03:30:36.322Z,9.63
2023-10-11T03:33:08.305Z,14.37
2023-10-11T03:35:39.638Z,9.90
2023-10-11T03:38:18.802Z,11.10
2023-10-11T03:41:09.050Z,16.33
2023-10-11T03:43:42.113Z,11.37
2023-10-11T03:46:14.983Z,22.20
2023-10-11T03:48:52.759Z,11.77
2023-10-11T03:51:23.754Z,11.90
2023-10-11T03:53:54.471Z,19.70
2023-10-11T03:56:23.620Z,9.83
2023-10-11T03:58:52.779Z,13.87
2023-10-11T04:01:37.708Z,10.47
2023-10-11T04:04:07.687Z,12.33
2023-10-11T04:06:36.863Z,12.10
2023-10-11T04:09:23.328Z,12.83
2023-10-11T04:11:57.030Z,17.65
2023-10-11T04:14:40.819Z,14.02
2023-10-11T04:17:11.449Z,9.67
2023-10-11T04:19:42.497Z,14.35
2023-10-11T04:22:17.401Z,12.43
2023-10-11T04:24:49.761Z,15.47
2023-10-11T04:27:32.796Z,8.93
2023-10-11T04:30:18.560Z,12.43
2023-10-11T04:32:47.533Z,9.70
2023-10-11T04:35:23.855Z,10.93
2023-10-11T04:38:03.593Z,9.90
2023-10-11T04:40:41.243Z,14.97
2023-10-11T04:43:21.849Z,9.70
2023-10-11T04:45:57.258Z,12.17
2023-10-11T04:48:34.861Z,12.83
2023-10-11T04:51:22.796Z,14.63
2023-10-11T04:54:00.077Z,19.27
2023-10-11T04:56:50.942Z,11.80
2023-10-11T04:59:29.047Z,11.13
2023-10-11T05:02:04.692Z,13.27
2023-10-11T05:04:35.335Z,12.27
2023-10-11T05:07:09.160Z,9.90
2023-10-11T05:09:43.323Z,15.13
2023-10-11T05:12:21.230Z,19.27
2023-10-11T05:15:04.893Z,9.25
2023-10-11T05:17:41.525Z,10.93
2023-10-11T05:20:29.973Z,15.85
2023-10-11T05:23:06.892Z,15.73
2023-10-11T05:25:57.748Z,12.07
2023-10-11T05:28:28.733Z,9.77
2023-10-11T05:31:18.903Z,13.23
2023-10-11T05:34:19.705Z,12.07
2023-10-11T05:37:11.651Z,10.93
2023-10-11T05:39:58.220Z,11.90
2023-10-11T05:42:44.909Z,11.80
2023-10-11T05:45:33.176Z,13.35
2023-10-11T05:48:20.044Z,11.10
2023-10-11T05:50:57.335Z,13.97
2023-10-11T05:53:26.972Z,9.88
2023-10-11T05:55:56.270Z,12.90
2023-10-11T05:58:25.518Z,11.43
2023-10-11T06:00:56.507Z,14.63
2023-10-11T06:03:30.270Z,10.63
2023-10-11T06:06:12.201Z,9.33
2023-10-11T06:08:45.769Z,18.57
2023-10-11T06:11:16.505Z,12.87
2023-10-11T06:13:45.657Z,17.03
2023-10-11T06:16:16.933Z,12.13
2023-10-11T06:18:53.604Z,12.77
2023-10-11T06:21:31.921Z,14.52
2023-10-11T06:24:02.483Z,14.95
2023-10-11T06:26:50.783Z,16.48
2023-10-11T06:29:24.293Z,10.77
2023-10-11T06:34:27.784Z,13.80
2023-10-11T06:36:57.919Z,12.52
2023-10-11T06:39:46.586Z,11.20
2023-10-11T06:42:22.878Z,11.60
2023-10-11T06:44:53.987Z,11.90
2023-10-11T06:47:24.827Z,11.85
2023-10-11T06:49:56.460Z,13.80
2023-10-11T06:52:32.979Z,15.93
2023-10-11T06:55:17.952Z,10.98
2023-10-11T06:57:51.701Z,8.48
2023-10-11T07:00:24.677Z,13.80
2023-10-11T07:03:08.611Z,13.57
2023-10-11T07:05:47.111Z,14.75
2023-10-11T07:08:19.363Z,22.77
2023-10-11T07:11:02.290Z,14.60
2023-10-11T07:13:50.336Z,15.18
2023-10-11T07:16:21.295Z,10.77
2023-10-11T07:18:55.573Z,18.17
2023-10-11T07:21:42.205Z,11.50
2023-10-11T07:24:32.579Z,12.95
2023-10-11T07:27:10.412Z,12.45
2023-10-11T07:29:47.492Z,19.27
2023-10-11T07:32:19.973Z,12.40
2023-10-11T07:34:55.315Z,8.35
2023-10-11T07:37:27.919Z,13.57
2023-10-11T07:40:01.760Z,20.30
2023-10-11T07:42:38.515Z,10.32
2023-10-11T07:45:14.051Z,11.23
2023-10-11T07:47:47.425Z,14.95
2023-10-11T07:50:23.702Z,9.77
2023-10-11T07:52:53.548Z,12.05
2023-10-11T07:55:27.320Z,11.85
2023-10-11T07:58:01.352Z,12.93
2023-10-11T08:00:34.058Z,13.18
2023-10-11T08:03:05.765Z,8.73
2023-10-11T08:05:37.955Z,16.63
2023-10-11T08:08:07.444Z,17.90
2023-10-11T08:10:36.653Z,16.38
2023-10-11T08:13:09.360Z,10.70
2023-10-11T08:15:39.994Z,10.40
2023-10-11T08:18:09.726Z,15.48
2023-10-11T08:20:40.271Z,16.88
2023-10-11T08:23:09.436Z,11.07
2023-10-11T08:25:41.993Z,15.90
2023-10-11T08:28:14.042Z,11.73
2023-10-11T08:30:46.995Z,17.40
2023-10-11T08:33:16.659Z,14.63
2023-10-11T08:35:52.408Z,12.13
2023-10-11T08:38:25.405Z,22.52
2023-10-11T08:40:59.543Z,18.27
2023-10-11T08:43:30.048Z,15.32
2023-10-11T08:46:02.576Z,13.00
2023-10-11T08:48:39.309Z,12.00
2023-10-11T08:51:14.301Z,16.80
2023-10-11T08:53:48.101Z,14.13
2023-10-11T08:56:18.763Z,13.10
2023-10-11T08:58:52.617Z,23.98
2023-10-11T09:01:25.851Z,10.43
2023-10-11T09:04:08.923Z,15.25
2023-10-11T09:06:43.768Z,11.40
2023-10-11T09:09:34.188Z,10.60
2023-10-11T09:12:24.317Z,17.55
2023-10-11T09:14:59.474Z,10.52
2023-10-11T09:17:29.859Z,12.30
2023-10-11T09:20:01.393Z,15.20
2023-10-11T09:22:48.931Z,17.23
2023-10-11T09:25:23.802Z,18.42
2023-10-11T09:27:55.440Z,17.17
2023-10-11T09:30:28.249Z,9.90
2023-10-11T09:33:06.659Z,16.80
2023-10-11T09:35:35.778Z,13.48
2023-10-11T09:38:09.345Z,17.80
2023-10-11T09:40:38.637Z,15.32
2023-10-11T09:43:07.871Z,15.55
2023-10-11T09:45:44.170Z,10.57
2023-10-11T09:48:16.795Z,20.80
2023-10-11T09:50:46.579Z,15.95
2023-10-11T09:53:17.232Z,11.60
2023-10-11T09:55:52.948Z,20.27
2023-10-11T09:58:33.467Z,16.98
2023-10-11T10:01:12.669Z,12.45
2023-10-11T10:03:48.669Z,16.85
2023-10-11T10:06:22.743Z,15.57
2023-10-11T10:09:25.600Z,19.00
2023-10-11T10:12:23.659Z,13.48
2023-10-11T10:15:05.707Z,8.77
2023-10-11T10:17:34.930Z,15.43
2023-10-11T10:20:46.378Z,17.73
2023-10-11T10:23:31.004Z,15.35
2023-10-11T10:26:40.592Z,19.02
2023-10-11T10:29:13.474Z,13.85
2023-10-11T10:32:05.077Z,15.43
2023-10-11T10:34:34.635Z,16.80
2023-10-11T10:37:08.350Z,20.77
2023-10-11T10:39:49.493Z,12.43
2023-10-11T10:42:19.832Z,15.52
2023-10-11T10:44:55.202Z,15.10
2023-10-11T10:47:30.171Z,17.95
2023-10-11T10:50:04.423Z,18.63
2023-10-11T10:52:35.571Z,18.27
2023-10-11T10:55:06.258Z,16.10
2023-10-11T10:57:38.128Z,21.73
2023-10-11T11:00:22.653Z,14.40
2023-10-11T11:02:57.536Z,15.63
2023-10-11T11:05:32.122Z,18.90
2023-10-11T11:08:17.142Z,18.23
2023-10-11T11:10:55.979Z,17.80
2023-10-11T11:13:30.082Z,17.63
2023-10-11T11:15:59.948Z,21.00
2023-10-11T11:18:33.373Z,16.15
2023-10-11T11:21:19.052Z,13.50
2023-10-11T11:23:50.339Z,20.48
2023-10-11T11:26:32.199Z,15.90
2023-10-11T11:29:12.537Z,18.58
2023-10-11T11:31:54.259Z,17.70
2023-10-11T11:34:28.721Z,20.95
2023-10-11T11:39:37.483Z,17.33
2023-10-11T11:42:09.178Z,18.60
2023-10-11T11:44:38.085Z,18.23
2023-10-11T11:47:08.780Z,16.35
2023-10-11T11:49:36.913Z,16.92
2023-10-11T11:52:06.664Z,32.70
2023-10-11T11:54:35.202Z,21.23
2023-10-11T11:57:08.873Z,21.95
2023-10-11T11:59:39.159Z,27.85
2023-10-11T12:02:18.200Z,20.52
2023-10-11T12:04:48.947Z,19.60
2023-10-11T12:07:18.492Z,21.40
2023-10-11T12:10:02.122Z,19.73
2023-10-11T12:12:32.518Z,24.48
2023-10-11T12:15:02.294Z,15.05
2023-10-11T12:17:32.914Z,20.75
2023-10-11T12:20:03.698Z,16.13
2023-10-11T12:22:32.816Z,18.73
2023-10-11T12:25:08.401Z,18.20
2023-10-11T12:27:41.278Z,13.13
2023-10-11T12:30:20.940Z,13.35
2023-10-11T12:32:53.213Z,15.20
2023-10-11T12:35:24.578Z,13.48
2023-10-11T12:37:53.833Z,14.35
2023-10-11T12:40:25.411Z,13.98
2023-10-11T12:42:56.768Z,11.18
2023-10-11T12:45:25.927Z,15.30
2023-10-11T12:47:56.514Z,11.10
2023-10-11T12:50:25.739Z,12.05
2023-10-11T12:52:55.048Z,11.35
2023-10-11T12:55:24.239Z,16.42
2023-10-11T12:57:54.556Z,9.70
2023-10-11T13:00:40.670Z,7.97
2023-10-11T13:03:26.297Z,10.60
2023-10-11T13:05:55.951Z,9.27
2023-10-11T13:08:27.360Z,7.30
2023-10-11T13:10:56.949Z,11.50
2023-10-11T13:13:28.196Z,8.18
2023-10-11T13:16:00.507Z,6.63
2023-10-11T13:18:33.915Z,7.93
2023-10-11T13:21:06.027Z,7.97
2023-10-11T13:23:35.899Z,8.75
2023-10-11T13:26:11.078Z,11.70
2023-10-11T13:28:42.142Z,9.77
2023-10-11T13:31:11.245Z,16.25
2023-10-11T13:33:43.634Z,11.65
2023-10-11T13:36:13.686Z,7.68
2023-10-11T13:38:46.404Z,10.63
2023-10-11T13:41:17.410Z,11.75
2023-10-11T13:43:46.749Z,9.77
2023-10-11T13:46:17.717Z,7.63
2023-10-11T13:48:51.272Z,8.35
2023-10-11T13:51:22.251Z,6.03
2023-10-11T13:53:52.540Z,10.75
2023-10-11T13:56:28.370Z,8.73
2023-10-11T13:58:57.507Z,12.15
2023-10-11T14:01:39.856Z,9.82
2023-10-11T14:04:15.403Z,11.35
2023-10-11T14:06:47.491Z,11.65
2023-10-11T14:09:18.480Z,7.72
2023-10-11T14:11:50.743Z,10.68
2023-10-11T14:14:21.572Z,7.53
2023-10-11T14:16:51.682Z,11.07
2023-10-11T14:19:25.972Z,9.45
2023-10-11T14:21:55.423Z,12.98
2023-10-11T14:24:24.746Z,11.82
2023-10-11T14:26:54.008Z,7.80
2023-10-11T14:29:23.145Z,7.15
2023-10-11T14:31:52.553Z,16.50
2023-10-11T14:34:22.987Z,9.30
2023-10-11T14:36:52.393Z,10.48
2023-10-11T14:39:23.622Z,12.05
2023-10-11T14:41:52.839Z,8.48
2023-10-11T14:44:23.752Z,10.75
2023-10-11T14:46:53.589Z,8.27
2023-10-11T14:49:24.826Z,8.35
2023-10-11T14:51:56.741Z,8.02
2023-10-11T14:54:26.087Z,8.63
2023-10-11T14:56:55.228Z,13.00
2023-10-11T14:59:24.358Z,8.40
2023-10-11T15:01:53.502Z,7.50
2023-10-11T15:04:24.631Z,12.15
2023-10-11T15:06:53.785Z,9.05
2023-10-11T15:09:22.940Z,9.30
2023-10-11T15:11:53.793Z,12.57
2023-10-11T15:14:23.013Z,8.63
2023-10-11T15:16:52.753Z,13.90
2023-10-11T15:19:24.582Z,7.60
2023-10-11T15:21:54.240Z,18.58
2023-10-11T15:24:24.893Z,9.38
2023-10-11T15:26:54.221Z,10.27
2023-10-11T15:29:24.269Z,8.43
2023-10-11T15:31:53.609Z,7.50
2023-10-11T15:34:24.065Z,6.40
2023-10-11T15:36:53.135Z,6.28
2023-10-11T15:39:24.138Z,7.65
2023-10-11T15:41:54.471Z,7.75
2023-10-11T15:44:26.293Z,10.07
2023-10-11T15:46:58.493Z,6.70
2023-10-11T15:49:29.022Z,6.60
2023-10-11T15:52:00.230Z,6.13
2023-10-11T15:54:29.905Z,7.85
2023-10-11T15:57:00.006Z,10.00
2023-10-11T15:59:30.482Z,5.28
2023-10-11T16:02:06.681Z,9.82
2023-10-11T16:04:37.466Z,9.20
2023-10-11T16:07:08.986Z,7.90
2023-10-11T16:09:38.204Z,8.88
2023-10-11T16:12:07.851Z,7.40
2023-10-11T16:14:36.944Z,8.45
2023-10-11T16:17:06.038Z,8.55
2023-10-11T16:19:38.037Z,6.95
2023-10-11T16:22:09.630Z,11.88
2023-10-11T16:24:39.129Z,6.97
2023-10-11T16:27:14.777Z,5.78
2023-10-11T16:29:44.493Z,8.95
2023-10-11T16:32:13.560Z,12.85
2023-10-11T16:34:44.043Z,9.85
2023-10-11T16:37:13.832Z,8.43
2023-10-11T16:39:45.250Z,7.72
2023-10-11T16:42:16.911Z,9.43
2023-10-11T16:44:46.272Z,13.05
2023-10-11T16:47:15.440Z,10.43
2023-10-11T16:49:46.586Z,13.02
2023-10-11T16:52:16.454Z,12.27
2023-10-11T16:54:46.977Z,11.63
2023-10-11T16:57:21.040Z,9.30
2023-10-11T16:59:52.581Z,11.52
2023-10-11T17:02:23.343Z,10.52
2023-10-11T17:04:55.004Z,10.70
2023-10-11T17:07:25.710Z,10.48
2023-10-11T17:09:55.160Z,10.15
2023-10-11T17:12:24.392Z,12.27
2023-10-11T17:14:53.884Z,13.25
2023-10-11T17:17:22.988Z,10.65
2023-10-11T17:19:53.675Z,9.18
2023-10-11T17:22:24.013Z,7.90
2023-10-11T17:24:53.166Z,12.40
2023-10-11T17:27:22.479Z,8.55
2023-10-11T17:29:51.643Z,10.02
2023-10-11T17:32:20.782Z,8.60
2023-10-11T17:34:49.884Z,10.95
2023-10-11T17:37:21.145Z,6.90
2023-10-11T17:39:50.394Z,8.55
2023-10-11T17:42:19.561Z,13.65
2023-10-11T17:44:49.190Z,8.13
2023-10-11T17:47:18.327Z,11.68
2023-10-11T17:49:48.261Z,8.40
2023-10-11T17:52:17.324Z,7.00
2023-10-11T17:54:47.822Z,6.80
2023-10-11T17:57:17.090Z,10.75
2023-10-11T17:59:46.331Z,12.88
2023-10-11T18:02:16.612Z,11.05
2023-10-11T18:04:45.755Z,10.32
2023-10-11T18:07:14.969Z,8.07
2023-10-11T18:09:44.086Z,11.25
2023-10-11T18:12:14.600Z,13.07
2023-10-11T18:14:46.190Z,8.88
2023-10-11T18:17:15.824Z,17.02
2023-10-11T18:19:44.954Z,12.27
2023-10-11T18:22:14.049Z,11.82
2023-10-11T18:24:43.243Z,18.88
2023-10-11T18:27:14.206Z,8.70
2023-10-11T18:29:43.420Z,14.02
2023-10-11T18:32:12.492Z,12.93
2023-10-11T18:34:42.414Z,15.52
2023-10-11T18:37:13.107Z,13.88
2023-10-11T18:39:42.258Z,16.15
2023-10-11T18:42:13.729Z,15.00
2023-10-11T18:44:45.056Z,14.73
2023-10-11T18:47:14.254Z,19.90
2023-10-11T18:49:44.020Z,10.35
2023-10-11T18:52:13.122Z,17.92
2023-10-11T18:54:42.519Z,13.00
2023-10-11T18:57:14.069Z,19.85
2023-10-11T18:59:43.293Z,14.75
2023-10-11T19:02:13.695Z,11.05
2023-10-11T19:04:43.676Z,17.08
2023-10-11T19:07:12.976Z,16.45
2023-10-11T19:09:42.269Z,13.13
2023-10-11T19:12:16.110Z,16.20
2023-10-11T19:14:45.393Z,16.35
2023-10-11T19:17:14.874Z,19.23
2023-10-11T19:19:44.038Z,12.90
2023-10-11T19:22:14.044Z,14.77
2023-10-11T19:24:44.529Z,13.15
2023-10-11T19:27:15.952Z,17.83
2023-10-11T19:29:45.152Z,17.38
2023-10-11T19:32:16.297Z,16.48
2023-10-11T19:34:49.595Z,21.17
2023-10-11T19:37:21.517Z,14.82
2023-10-11T19:40:07.105Z,16.33
2023-10-11T19:42:38.887Z,13.27
2023-10-11T19:45:11.453Z,18.92
2023-10-11T19:47:44.802Z,19.08
2023-10-11T19:50:15.458Z,16.17
2023-10-11T19:52:46.219Z,14.20
2023-10-11T19:55:19.739Z,14.50
2023-10-11T19:57:52.524Z,18.55
2023-10-11T20:00:23.734Z,16.77
2023-10-11T20:02:57.548Z,19.02
2023-10-11T20:05:27.592Z,11.10
2023-10-11T20:07:57.700Z,11.65
2023-10-11T20:10:28.660Z,12.45
2023-10-11T20:13:02.336Z,17.25
2023-10-11T20:15:37.518Z,10.90
2023-10-11T20:18:07.180Z,14.80
2023-10-11T20:20:38.463Z,12.20
2023-10-11T20:23:08.070Z,16.13
2023-10-11T20:25:37.835Z,9.57
2023-10-11T20:28:10.601Z,8.63
2023-10-11T20:30:42.154Z,4.20
2023-10-11T20:33:11.777Z,5.43
2023-10-11T20:35:41.215Z,3.88
2023-10-11T20:38:10.409Z,3.45
2023-10-11T20:40:42.055Z,1.58
2023-10-11T20:43:13.088Z,2.92
2023-10-11T20:45:43.067Z,5.55
2023-10-11T20:48:12.752Z,1.95
2023-10-11T20:50:42.187Z,1.52
2023-10-11T20:53:12.038Z,1.85
2023-10-11T20:55:46.114Z,0.93
2023-10-11T20:58:24.618Z,1.13
2023-10-11T21:00:54.541Z,3.78
2023-10-11T21:03:25.404Z,1.45
2023-10-11T21:05:55.789Z,4.28
2023-10-11T21:08:26.832Z,1.73
2023-10-11T21:10:56.609Z,0.85
2023-10-11T21:13:31.643Z,1.30
2023-10-11T21:16:02.123Z,3.20
2023-10-11T21:18:32.465Z,1.23
2023-10-11T21:21:03.032Z,1.05
2023-10-11T21:23:32.268Z,0.60
2023-10-11T21:26:02.230Z,5.00
2023-10-11T21:28:33.043Z,1.00
2023-10-11T21:31:02.361Z,1.30
2023-10-11T21:33:36.879Z,0.93
2023-10-11T21:36:08.182Z,2.03
2023-10-11T21:38:38.338Z,1.10
2023-10-11T21:41:14.470Z,0.50
2023-10-11T21:43:45.216Z,2.47
2023-10-11T21:46:14.618Z,1.40
2023-10-11T21:48:44.923Z,2.13
2023-10-11T21:51:16.005Z,4.75
2023-10-11T21:53:45.723Z,3.45
2023-10-11T21:56:15.355Z,0.67
2023-10-11T21:58:48.063Z,1.87
2023-10-11T22:01:24.576Z,1.20
2023-10-11T22:03:58.144Z,1.75
2023-10-11T22:06:27.828Z,2.47
2023-10-11T22:08:56.548Z,3.78
2023-10-11T22:11:27.936Z,2.65
2023-10-11T22:13:58.633Z,2.15
2023-10-11T22:16:28.069Z,1.33
2023-10-11T22:19:00.028Z,1.80
2023-10-11T22:21:29.548Z,0.43
2023-10-11T22:23:58.696Z,3.95
2023-10-11T22:26:44.544Z,0.50
2023-10-11T22:29:39.834Z,2.25
2023-10-11T22:32:12.944Z,1.50
2023-10-11T22:34:42.714Z,0.57
2023-10-11T22:37:24.812Z,3.88
2023-10-11T22:40:14.676Z,1.73
2023-10-11T22:42:44.471Z,2.03
2023-10-11T22:45:18.101Z,0.70
2023-10-11T22:47:47.402Z,3.83
2023-10-11T22:50:19.457Z,1.17
2023-10-11T22:52:50.662Z,5.07
2023-10-11T22:55:22.312Z,1.13
2023-10-11T22:57:51.993Z,4.03
2023-10-11T23:00:22.695Z,1.07
2023-10-11T23:02:53.789Z,0.80
2023-10-11T23:05:24.323Z,0.93
2023-10-11T23:07:53.477Z,0.53
2023-10-11T23:10:23.054Z,0.70
2023-10-11T23:12:55.929Z,3.17
2023-10-11T23:15:36.091Z,0.97
2023-10-11T23:18:14.495Z,1.23
2023-10-11T23:20:47.828Z,0.73
2023-10-11T23:23:30.794Z,0.87
2023-10-11T23:26:06.726Z,0.70
2023-10-11T23:28:50.549Z,2.87
2023-10-11T23:31:29.110Z,1.13
2023-10-11T23:33:59.249Z,2.87
2023-10-11T23:36:36.533Z,0.70
2023-10-11T23:39:08.683Z,3.80
2023-10-11T23:41:46.738Z,2.83
2023-10-11T23:44:20.656Z,1.87
2023-10-11T23:47:11.880Z,3.33
2023-10-11T23:49:43.140Z,4.93
2023-10-11T23:52:20.928Z,4.57
2023-10-11T23:54:50.987Z,7.77
2023-10-11T23:57:23.331Z,3.63
2023-10-11T23:59:53.814Z,2.67
